createdAt,value
2022-09-23T00:00:12.396Z,99.90
2022-09-23T00:02:41.265Z,99.90
2022-09-23T00:05:11.663Z,99.90
2022-09-23T00:07:40.338Z,99.90
2022-09-23T00:10:11.279Z,99.90
2022-09-23T00:12:39.943Z,99.90
2022-09-23T00:15:11.383Z,99.90
2022-09-23T00:17:40.726Z,99.90
2022-09-23T00:20:10.942Z,99.90
2022-09-23T00:22:39.720Z,99.90
2022-09-23T00:25:11.684Z,99.90
2022-09-23T00:27:42.237Z,99.90
2022-09-23T00:30:12.164Z,99.90
2022-09-23T00:32:40.979Z,99.90
2022-09-23T00:35:10.933Z,99.90
2022-09-23T00:37:39.633Z,99.90
2022-09-23T00:40:12.704Z,99.90
2022-09-23T00:42:48.255Z,99.90
2022-09-23T00:45:17.943Z,99.90
2022-09-23T00:47:49.375Z,99.90
2022-09-23T00:50:25.052Z,99.90
2022-09-23T00:52:56.973Z,99.90
2022-09-23T00:55:31.035Z,99.90
2022-09-23T00:58:01.763Z,99.90
2022-09-23T01:00:30.499Z,99.90
2022-09-23T01:03:00.150Z,99.90
2022-09-23T01:05:29.003Z,99.90
2022-09-23T01:07:59.264Z,99.90
2022-09-23T01:10:37.429Z,99.90
2022-09-23T01:13:16.427Z,99.90
2022-09-23T01:15:53.011Z,99.90
2022-09-23T01:18:33.394Z,99.90
2022-09-23T01:21:16.927Z,99.90
2022-09-23T01:24:24.663Z,99.90
2022-09-23T01:27:16.676Z,99.90
2022-09-23T01:30:09.866Z,99.90
2022-09-23T01:33:09.639Z,99.90
2022-09-23T01:36:00.596Z,99.90
2022-09-23T01:38:38.743Z,99.90
2022-09-23T01:41:34.738Z,99.90
2022-09-23T01:44:08.412Z,99.90
2022-09-23T01:46:43.530Z,99.90
2022-09-23T01:49:20.398Z,99.90
2022-09-23T01:51:54.475Z,99.90
2022-09-23T01:54:30.096Z,99.90
2022-09-23T01:57:03.909Z,99.90
2022-09-23T01:59:37.517Z,99.90
2022-09-23T02:02:10.554Z,99.90
2022-09-23T02:04:47.435Z,99.90
2022-09-23T02:07:21.959Z,99.90
2022-09-23T02:09:55.034Z,99.90
2022-09-23T02:12:28.777Z,99.90
2022-09-23T02:15:05.808Z,99.90
2022-09-23T02:17:39.850Z,99.90
2022-09-23T02:20:12.765Z,99.90
2022-09-23T02:22:46.511Z,99.90
2022-09-23T02:25:16.551Z,99.90
2022-09-23T02:27:55.651Z,99.90
2022-09-23T02:30:28.193Z,99.90
2022-09-23T02:33:04.639Z,99.90
2022-09-23T02:35:40.538Z,99.90
2022-09-23T02:38:21.846Z,99.90
2022-09-23T02:41:00.296Z,99.90
2022-09-23T02:43:34.067Z,99.90
2022-09-23T02:46:03.477Z,99.90
2022-09-23T02:48:36.155Z,99.90
2022-09-23T02:51:06.774Z,99.90
2022-09-23T02:53:36.783Z,99.90
2022-09-23T02:56:16.570Z,99.90
2022-09-23T02:58:47.160Z,99.90
2022-09-23T03:01:28.009Z,99.90
2022-09-23T03:04:07.910Z,99.90
2022-09-23T03:06:49.501Z,99.90
2022-09-23T03:09:24.572Z,99.90
2022-09-23T03:12:06.262Z,99.90
2022-09-23T03:14:45.141Z,99.90
2022-09-23T03:17:38.631Z,99.90
2022-09-23T03:20:14.054Z,99.90
2022-09-23T03:22:48.783Z,99.90
2022-09-23T03:25:22.631Z,99.90
2022-09-23T03:27:52.225Z,99.90
2022-09-23T03:30:21.875Z,99.90
2022-09-23T03:32:52.551Z,99.90
2022-09-23T03:35:24.584Z,99.90
2022-09-23T03:38:00.748Z,99.90
2022-09-23T03:40:32.082Z,99.90
2022-09-23T03:43:02.883Z,99.90
2022-09-23T03:45:34.114Z,99.90
2022-09-23T03:48:03.473Z,99.90
2022-09-23T03:50:32.108Z,99.90
2022-09-23T03:53:02.131Z,99.90
2022-09-23T03:55:31.542Z,99.90
2022-09-23T03:58:00.811Z,99.90
2022-09-23T04:00:29.503Z,99.90
2022-09-23T04:02:58.246Z,99.90
2022-09-23T04:05:26.862Z,99.90
2022-09-23T04:07:55.907Z,99.90
2022-09-23T04:10:25.935Z,99.90
2022-09-23T04:12:54.755Z,99.90
2022-09-23T04:15:23.458Z,99.90
2022-09-23T04:17:52.172Z,99.90
2022-09-23T04:20:20.850Z,99.90
2022-09-23T04:22:49.481Z,99.90
2022-09-23T04:25:18.243Z,99.90
2022-09-23T04:27:48.320Z,99.90
2022-09-23T04:30:18.996Z,99.90
2022-09-23T04:33:06.749Z,99.90
2022-09-23T04:35:39.960Z,99.90
2022-09-23T04:38:10.316Z,99.90
2022-09-23T04:40:39.747Z,99.90
2022-09-23T04:43:13.486Z,99.90
2022-09-23T04:45:42.334Z,99.90
2022-09-23T04:48:11.587Z,99.90
2022-09-23T04:50:40.917Z,99.90
2022-09-23T04:53:09.752Z,99.90
2022-09-23T04:55:38.415Z,99.90
2022-09-23T04:58:07.811Z,99.90
2022-09-23T05:00:38.170Z,99.90
2022-09-23T05:03:06.925Z,99.90
2022-09-23T05:05:35.470Z,99.90
2022-09-23T05:08:04.307Z,99.90
2022-09-23T05:10:32.991Z,99.90
2022-09-23T05:13:01.637Z,99.90
2022-09-23T05:15:30.361Z,99.90
2022-09-23T05:18:00.778Z,99.90
2022-09-23T05:20:29.588Z,99.90
2022-09-23T05:22:58.734Z,99.90
2022-09-23T05:25:27.443Z,99.90
2022-09-23T05:27:56.430Z,99.90
2022-09-23T05:30:25.285Z,99.90
2022-09-23T05:32:54.352Z,99.90
2022-09-23T05:35:24.505Z,99.90
2022-09-23T05:37:53.220Z,99.90
2022-09-23T05:40:21.918Z,99.90
2022-09-23T05:42:51.646Z,99.90
2022-09-23T05:45:20.434Z,99.90
2022-09-23T05:47:49.158Z,99.90
2022-09-23T05:50:18.036Z,99.90
2022-09-23T05:52:48.011Z,99.90
2022-09-23T05:55:16.975Z,99.90
2022-09-23T05:57:45.552Z,99.90
2022-09-23T06:00:14.819Z,99.90
2022-09-23T06:02:44.148Z,99.90
2022-09-23T06:05:13.244Z,99.90
2022-09-23T06:07:41.908Z,99.90
2022-09-23T06:10:12.287Z,99.90
2022-09-23T06:12:42.628Z,99.90
2022-09-23T06:15:12.309Z,99.90
2022-09-23T06:17:41.106Z,99.90
2022-09-23T06:20:10.752Z,99.90
2022-09-23T06:22:40.243Z,99.90
2022-09-23T06:25:09.722Z,99.90
2022-09-23T06:27:40.299Z,99.90
2022-09-23T06:30:10.225Z,99.90
2022-09-23T06:32:38.947Z,99.90
2022-09-23T06:35:18.118Z,99.90
2022-09-23T06:37:51.151Z,99.90
2022-09-23T06:40:20.387Z,99.90
2022-09-23T06:42:52.464Z,99.90
2022-09-23T06:45:21.163Z,99.90
2022-09-23T06:47:56.389Z,99.90
2022-09-23T06:50:26.526Z,99.90
2022-09-23T06:52:56.497Z,99.90
2022-09-23T06:55:28.035Z,99.90
2022-09-23T06:58:00.066Z,99.90
2022-09-23T07:00:29.401Z,99.90
2022-09-23T07:02:58.112Z,99.90
2022-09-23T07:05:26.874Z,99.90
2022-09-23T07:07:55.483Z,99.80
2022-09-23T07:10:24.248Z,99.60
2022-09-23T07:12:52.882Z,99.30
2022-09-23T07:15:23.170Z,99.10
2022-09-23T07:17:51.947Z,98.80
2022-09-23T07:20:20.579Z,98.50
2022-09-23T07:22:52.465Z,98.30
2022-09-23T07:25:21.335Z,98.00
2022-09-23T07:27:50.170Z,97.70
2022-09-23T07:30:24.764Z,97.50
2022-09-23T07:32:55.609Z,97.20
2022-09-23T07:35:24.334Z,97.10
2022-09-23T07:37:53.070Z,96.90
2022-09-23T07:40:21.781Z,96.70
2022-09-23T07:42:50.623Z,96.40
2022-09-23T07:45:22.410Z,96.10
2022-09-23T07:47:51.354Z,95.90
2022-09-23T07:50:22.678Z,95.70
2022-09-23T07:52:52.620Z,95.70
2022-09-23T07:55:21.983Z,95.60
2022-09-23T07:58:03.944Z,95.50
2022-09-23T08:00:39.143Z,95.30
2022-09-23T08:03:07.946Z,95.00
2022-09-23T08:05:38.999Z,94.70
2022-09-23T08:08:08.146Z,94.30
2022-09-23T08:10:36.796Z,93.80
2022-09-23T08:13:05.495Z,93.60
2022-09-23T08:15:34.534Z,93.00
2022-09-23T08:18:03.206Z,92.60
2022-09-23T08:20:48.138Z,92.00
2022-09-23T08:23:20.210Z,91.60
2022-09-23T08:25:49.450Z,91.10
2022-09-23T08:28:19.381Z,90.90
2022-09-23T08:30:50.900Z,90.70
2022-09-23T08:33:23.130Z,90.50
2022-09-23T08:35:52.758Z,90.20
2022-09-23T08:38:22.993Z,88.80
2022-09-23T08:40:52.171Z,88.10
2022-09-23T08:43:26.738Z,86.80
2022-09-23T08:45:58.974Z,86.10
2022-09-23T08:48:32.100Z,85.10
2022-09-23T08:51:25.517Z,83.20
2022-09-23T08:53:55.590Z,82.10
2022-09-23T08:56:25.182Z,80.80
2022-09-23T08:59:03.498Z,79.10
2022-09-23T09:01:38.514Z,77.40
2022-09-23T09:04:20.265Z,75.80
2022-09-23T09:06:55.872Z,73.70
2022-09-23T09:09:42.376Z,72.50
2022-09-23T09:12:17.161Z,71.40
2022-09-23T09:14:56.345Z,71.00
2022-09-23T09:17:37.101Z,70.20
2022-09-23T09:20:20.163Z,68.80
2022-09-23T09:22:57.950Z,67.30
2022-09-23T09:25:52.586Z,66.00
2022-09-23T09:28:26.948Z,64.50
2022-09-23T09:30:58.978Z,64.10
2022-09-23T09:33:32.538Z,63.20
2022-09-23T09:36:20.948Z,62.40
2022-09-23T09:38:51.312Z,61.60
2022-09-23T09:41:24.869Z,61.30
2022-09-23T09:44:00.939Z,59.90
2022-09-23T09:46:45.358Z,58.70
2022-09-23T09:49:24.212Z,57.70
2022-09-23T09:52:13.862Z,57.20
2022-09-23T09:54:43.719Z,56.10
2022-09-23T09:57:36.535Z,55.60
2022-09-23T10:00:35.694Z,55.00
2022-09-23T10:03:21.319Z,54.60
2022-09-23T10:05:52.747Z,54.30
2022-09-23T10:08:28.078Z,53.80
2022-09-23T10:11:03.655Z,53.00
2022-09-23T10:13:33.953Z,52.00
2022-09-23T10:16:04.431Z,50.30
2022-09-23T10:18:37.900Z,48.60
2022-09-23T10:21:12.466Z,46.70
2022-09-23T10:23:43.514Z,45.20
2022-09-23T10:26:14.187Z,43.60
2022-09-23T10:28:55.805Z,42.10
2022-09-23T10:31:27.633Z,40.70
2022-09-23T10:34:01.111Z,40.50
2022-09-23T10:36:31.411Z,40.00
2022-09-23T10:39:16.400Z,39.30
2022-09-23T10:42:18.071Z,38.60
2022-09-23T10:45:21.804Z,37.80
2022-09-23T10:47:57.573Z,37.50
2022-09-23T10:50:49.244Z,37.20
2022-09-23T10:53:26.397Z,36.90
2022-09-23T10:56:11.177Z,36.30
2022-09-23T10:59:09.351Z,36.70
2022-09-23T11:01:50.843Z,35.80
2022-09-23T11:04:39.122Z,36.20
2022-09-23T11:07:19.217Z,36.20
2022-09-23T11:10:04.502Z,35.90
2022-09-23T11:12:44.686Z,36.00
2022-09-23T11:15:27.795Z,35.30
2022-09-23T11:18:23.598Z,35.00
2022-09-23T11:21:07.363Z,34.70
2022-09-23T11:23:55.428Z,34.30
2022-09-23T11:26:38.028Z,33.50
2022-09-23T11:29:35.243Z,33.10
2022-09-23T11:32:21.189Z,33.80
2022-09-23T11:35:04.335Z,35.00
2022-09-23T11:37:37.577Z,36.30
2022-09-23T11:40:15.772Z,36.90
2022-09-23T11:42:53.084Z,37.80
2022-09-23T11:45:46.733Z,38.90
2022-09-23T11:48:19.954Z,39.70
2022-09-23T11:50:56.482Z,40.60
2022-09-23T11:53:34.266Z,41.90
2022-09-23T11:56:07.335Z,42.70
2022-09-23T11:58:42.238Z,43.50
2022-09-23T12:01:22.608Z,44.30
2022-09-23T12:04:16.405Z,45.00
2022-09-23T12:06:51.752Z,45.70
2022-09-23T12:09:41.318Z,47.00
2022-09-23T12:12:26.353Z,47.50
2022-09-23T12:15:02.213Z,47.40
2022-09-23T12:17:52.843Z,47.30
2022-09-23T12:21:00.686Z,47.10
2022-09-23T12:23:45.449Z,47.30
2022-09-23T12:26:18.291Z,47.50
2022-09-23T12:28:50.476Z,47.80
2022-09-23T12:31:21.828Z,47.70
2022-09-23T12:33:52.132Z,47.40
2022-09-23T12:36:28.142Z,47.30
2022-09-23T12:39:04.034Z,47.60
2022-09-23T12:41:37.675Z,48.00
2022-09-23T12:44:29.793Z,48.00
2022-09-23T12:47:37.847Z,47.90
2022-09-23T12:50:51.095Z,47.10
2022-09-23T12:54:07.592Z,46.80
2022-09-23T12:56:54.837Z,47.10
2022-09-23T12:59:27.353Z,46.80
2022-09-23T13:01:56.164Z,46.90
2022-09-23T13:04:46.335Z,47.10
2022-09-23T13:07:34.488Z,47.10
2022-09-23T13:10:09.831Z,47.20
2022-09-23T13:12:40.438Z,47.30
2022-09-23T13:15:17.153Z,48.00
2022-09-23T13:17:45.665Z,48.10
2022-09-23T13:20:29.283Z,48.00
2022-09-23T13:23:15.600Z,48.20
2022-09-23T13:25:44.792Z,48.40
2022-09-23T13:28:20.848Z,48.60
2022-09-23T13:30:52.318Z,48.80
2022-09-23T13:33:24.309Z,49.10
2022-09-23T13:36:15.294Z,49.40
2022-09-23T13:38:54.255Z,49.60
2022-09-23T13:41:25.884Z,49.90
2022-09-23T13:43:56.993Z,50.30
2022-09-23T13:46:27.657Z,50.60
2022-09-23T13:49:02.814Z,51.00
2022-09-23T13:51:35.100Z,51.20
2022-09-23T13:54:05.493Z,51.30
2022-09-23T13:56:35.499Z,51.60
2022-09-23T13:59:24.375Z,51.80
2022-09-23T14:02:03.228Z,52.10
2022-09-23T14:04:31.750Z,52.20
2022-09-23T14:07:00.139Z,52.20
2022-09-23T14:09:29.382Z,52.40
2022-09-23T14:12:00.099Z,52.40
2022-09-23T14:14:30.638Z,52.50
2022-09-23T14:17:01.651Z,52.50
2022-09-23T14:19:30.506Z,52.60
2022-09-23T14:21:59.690Z,52.80
2022-09-23T14:24:33.806Z,52.90
2022-09-23T14:27:16.051Z,52.80
2022-09-23T14:29:47.955Z,52.70
2022-09-23T14:32:23.567Z,52.40
2022-09-23T14:34:55.132Z,52.40
2022-09-23T14:37:47.860Z,52.50
2022-09-23T14:40:19.535Z,52.70
2022-09-23T14:42:51.585Z,52.70
2022-09-23T14:45:23.554Z,52.60
2022-09-23T14:47:58.067Z,52.50
2022-09-23T14:50:40.818Z,52.70
2022-09-23T14:53:33.875Z,52.90
2022-09-23T14:56:20.721Z,53.10
2022-09-23T14:58:54.649Z,52.80
2022-09-23T15:01:34.070Z,52.80
2022-09-23T15:04:16.534Z,52.90
2022-09-23T15:06:49.890Z,52.80
2022-09-23T15:09:23.860Z,52.80
2022-09-23T15:12:00.722Z,53.00
2022-09-23T15:14:41.003Z,53.10
2022-09-23T15:17:21.710Z,53.40
2022-09-23T15:19:56.837Z,53.60
2022-09-23T15:22:26.646Z,53.70
2022-09-23T15:25:10.861Z,53.90
2022-09-23T15:27:43.444Z,54.10
2022-09-23T15:30:19.240Z,54.30
2022-09-23T15:32:49.470Z,54.50
2022-09-23T15:35:25.602Z,54.80
2022-09-23T15:37:59.155Z,55.00
2022-09-23T15:40:32.940Z,55.30
2022-09-23T15:43:08.791Z,55.40
2022-09-23T15:45:43.086Z,55.70
2022-09-23T15:48:15.384Z,55.90
2022-09-23T15:51:07.147Z,56.20
2022-09-23T15:53:36.763Z,56.60
2022-09-23T15:56:06.781Z,56.70
2022-09-23T15:58:35.446Z,57.00
2022-09-23T16:01:05.295Z,57.10
2022-09-23T16:03:34.096Z,57.40
2022-09-23T16:06:06.558Z,57.70
2022-09-23T16:08:35.244Z,57.90
2022-09-23T16:11:04.331Z,58.00
2022-09-23T16:13:32.940Z,58.30
2022-09-23T16:16:02.129Z,58.60
2022-09-23T16:18:31.138Z,58.80
2022-09-23T16:20:59.756Z,59.20
2022-09-23T16:23:38.998Z,59.40
2022-09-23T16:26:15.381Z,59.60
2022-09-23T16:28:45.063Z,59.80
2022-09-23T16:31:16.100Z,60.00
2022-09-23T16:33:45.440Z,60.20
2022-09-23T16:36:19.132Z,60.50
2022-09-23T16:38:49.529Z,60.70
2022-09-23T16:41:18.490Z,60.60
2022-09-23T16:43:47.234Z,60.60
2022-09-23T16:46:19.780Z,60.80
2022-09-23T16:48:52.972Z,61.00
2022-09-23T16:51:24.094Z,61.10
2022-09-23T16:53:55.945Z,61.20
2022-09-23T16:56:28.837Z,61.50
2022-09-23T16:58:58.567Z,61.60
2022-09-23T17:01:48.224Z,61.80
2022-09-23T17:04:18.496Z,62.10
2022-09-23T17:06:50.568Z,62.20
2022-09-23T17:09:23.116Z,62.50
2022-09-23T17:12:00.269Z,62.80
2022-09-23T17:14:31.761Z,63.00
2022-09-23T17:17:01.512Z,63.20
2022-09-23T17:19:30.253Z,63.50
2022-09-23T17:21:59.258Z,63.80
2022-09-23T17:24:30.032Z,64.00
2022-09-23T17:26:59.284Z,64.20
2022-09-23T17:29:29.239Z,65.10
2022-09-23T17:31:58.558Z,64.50
2022-09-23T17:34:29.067Z,64.70
2022-09-23T17:37:02.706Z,65.00
2022-09-23T17:39:33.136Z,65.10
2022-09-23T17:42:03.932Z,65.30
2022-09-23T17:44:51.339Z,65.50
2022-09-23T17:47:25.617Z,65.60
2022-09-23T17:49:54.645Z,65.90
2022-09-23T17:52:23.558Z,66.00
2022-09-23T17:54:55.272Z,66.20
2022-09-23T17:57:24.312Z,66.30
2022-09-23T17:59:53.916Z,66.40
2022-09-23T18:02:23.045Z,66.60
2022-09-23T18:04:52.453Z,67.00
2022-09-23T18:07:24.553Z,67.30
2022-09-23T18:09:54.877Z,67.60
2022-09-23T18:12:30.376Z,68.00
2022-09-23T18:15:04.526Z,68.30
2022-09-23T18:17:39.212Z,68.50
2022-09-23T18:20:31.120Z,69.50
2022-09-23T18:23:01.073Z,69.10
2022-09-23T18:25:40.088Z,69.40
2022-09-23T18:28:11.094Z,69.80
2022-09-23T18:30:40.306Z,70.10
2022-09-23T18:33:12.552Z,70.50
2022-09-23T18:35:42.541Z,70.80
2022-09-23T18:38:15.500Z,71.20
2022-09-23T18:40:56.795Z,71.40
2022-09-23T18:43:33.808Z,71.70
2022-09-23T18:46:11.888Z,71.90
2022-09-23T18:48:58.875Z,72.20
2022-09-23T18:51:32.010Z,72.30
2022-09-23T18:54:04.810Z,72.60
2022-09-23T18:56:42.213Z,73.00
2022-09-23T18:59:15.097Z,73.30
2022-09-23T19:01:47.486Z,73.60
2022-09-23T19:04:22.778Z,73.80
2022-09-23T19:06:53.975Z,73.90
2022-09-23T19:09:43.906Z,74.00
2022-09-23T19:12:14.071Z,74.90
2022-09-23T19:14:47.988Z,74.40
2022-09-23T19:17:16.897Z,74.60
2022-09-23T19:19:46.226Z,74.80
2022-09-23T19:22:15.263Z,75.60
2022-09-23T19:24:43.996Z,74.90
2022-09-23T19:27:15.064Z,74.90
2022-09-23T19:29:45.589Z,75.00
2022-09-23T19:32:16.097Z,75.10
2022-09-23T19:34:46.540Z,75.90
2022-09-23T19:37:16.779Z,75.40
2022-09-23T19:39:46.106Z,75.50
2022-09-23T19:42:16.207Z,75.60
2022-09-23T19:44:44.906Z,75.70
2022-09-23T19:47:15.801Z,75.90
2022-09-23T19:49:44.683Z,76.10
2022-09-23T19:52:15.167Z,77.00
2022-09-23T19:54:44.606Z,77.20
2022-09-23T19:57:18.051Z,76.80
2022-09-23T19:59:47.736Z,77.00
2022-09-23T20:02:17.322Z,77.20
2022-09-23T20:04:46.697Z,77.30
2022-09-23T20:07:16.116Z,77.40
2022-09-23T20:09:45.209Z,77.40
2022-09-23T20:12:14.753Z,77.40
2022-09-23T20:14:46.287Z,77.60
2022-09-23T20:17:17.687Z,77.80
2022-09-23T20:19:47.585Z,78.10
2022-09-23T20:22:33.062Z,78.20
2022-09-23T20:25:20.342Z,79.00
2022-09-23T20:27:52.848Z,78.20
2022-09-23T20:30:22.985Z,78.40
2022-09-23T20:32:51.693Z,78.70
2022-09-23T20:35:20.346Z,79.00
2022-09-23T20:37:49.642Z,79.20
2022-09-23T20:40:18.598Z,79.40
2022-09-23T20:42:49.878Z,79.70
2022-09-23T20:45:18.602Z,79.80
2022-09-23T20:47:49.941Z,80.10
2022-09-23T20:50:18.691Z,80.30
2022-09-23T20:52:47.465Z,80.40
2022-09-23T20:55:16.376Z,80.50
2022-09-23T20:57:45.440Z,80.80
2022-09-23T21:00:15.604Z,81.10
2022-09-23T21:02:49.075Z,81.40
2022-09-23T21:05:18.486Z,81.80
2022-09-23T21:07:47.933Z,81.80
2022-09-23T21:10:17.004Z,81.70
2022-09-23T21:12:46.201Z,81.80
2022-09-23T21:15:14.879Z,81.90
2022-09-23T21:17:43.648Z,82.00
2022-09-23T21:20:13.695Z,82.10
2022-09-23T21:22:42.319Z,82.20
2022-09-23T21:25:28.460Z,82.20
2022-09-23T21:27:58.630Z,82.20
2022-09-23T21:30:27.661Z,82.30
2022-09-23T21:32:57.326Z,82.40
2022-09-23T21:35:27.579Z,82.60
2022-09-23T21:37:56.210Z,82.90
2022-09-23T21:40:45.743Z,82.90
2022-09-23T21:43:14.619Z,83.10
2022-09-23T21:45:43.292Z,83.00
2022-09-23T21:48:12.035Z,83.20
2022-09-23T21:50:42.066Z,83.20
2022-09-23T21:53:10.842Z,83.20
2022-09-23T21:55:39.738Z,83.20
2022-09-23T21:58:08.420Z,83.30
2022-09-23T22:00:37.156Z,83.40
2022-09-23T22:03:06.148Z,83.60
2022-09-23T22:05:34.804Z,83.80
2022-09-23T22:08:04.983Z,84.20
2022-09-23T22:10:33.644Z,84.50
2022-09-23T22:13:02.299Z,84.70
2022-09-23T22:15:35.979Z,85.50
2022-09-23T22:18:23.736Z,84.80
2022-09-23T22:20:54.665Z,85.10
2022-09-23T22:23:24.840Z,85.20
2022-09-23T22:26:03.459Z,85.40
2022-09-23T22:29:03.292Z,85.40
2022-09-23T22:31:49.298Z,85.50
2022-09-23T22:34:47.594Z,85.60
2022-09-23T22:37:09.147Z,85.70
2022-09-23T22:39:39.174Z,85.90
2022-09-23T22:42:08.519Z,86.10
2022-09-23T22:44:37.181Z,86.20
2022-09-23T22:47:06.306Z,86.40
2022-09-23T22:49:35.019Z,86.50
2022-09-23T22:52:04.283Z,86.70
2022-09-23T22:54:34.246Z,86.60
2022-09-23T22:57:05.710Z,86.70
2022-09-23T22:59:34.755Z,86.80
2022-09-23T23:02:04.006Z,86.90
2022-09-23T23:04:33.724Z,87.10
2022-09-23T23:07:03.362Z,87.30
2022-09-23T23:09:32.096Z,87.40
2022-09-23T23:12:00.781Z,87.50
2022-09-23T23:14:31.653Z,87.70
2022-09-23T23:17:00.802Z,87.80
2022-09-23T23:19:29.487Z,87.90
2022-09-23T23:21:58.289Z,88.30
2022-09-23T23:24:27.010Z,88.50
2022-09-23T23:26:55.686Z,88.70
2022-09-23T23:29:24.643Z,88.80
2022-09-23T23:31:54.724Z,89.20
2022-09-23T23:34:24.539Z,89.40
2022-09-23T23:36:56.004Z,89.40
2022-09-23T23:39:25.599Z,89.50
2022-09-23T23:41:55.970Z,89.50
2022-09-23T23:44:25.031Z,89.60
2022-09-23T23:46:55.838Z,89.60
2022-09-23T23:49:24.768Z,89.90
2022-09-23T23:51:53.918Z,90.00
2022-09-23T23:54:22.790Z,90.10
2022-09-23T23:56:51.455Z,90.10
2022-09-23T23:59:21.072Z,90.20
